Time;durP1;ratioP1;P1;durP2;ratioP2;P2;SDS_P1;SDS_P2;PMS_P1;PMS_P2;Temp;Humidity;BMP_temperature;BMP_pressure;BME280_temperature;BME280_humidity;BME280_pressure;Samples;Min_cycle;Max_cycle;Signal;HPM_P1;HPM_P2
2023/06/10 00:01:30;;;;;;;6.22;3.67;;;23.30;81.40;;;;;;10984152;32;20081;-74
2023/06/10 00:07:32;;;;;;;3.62;2.45;;;23.30;81.20;;;;;;10984079;32;20455;-74
2023/06/10 00:13:34;;;;;;;4.00;2.58;;;23.40;81.10;;;;;;10983850;32;20049;-75
2023/06/10 00:19:41;;;;;;;4.75;3.30;;;23.30;81.30;;;;;;10983465;32;20026;-74
2023/06/10 00:25:43;;;;;;;4.43;2.40;;;23.30;81.50;;;;;;10983286;32;20030;-74
2023/06/10 00:31:46;;;;;;;3.50;2.33;;;23.30;81.20;;;;;;10983188;32;20423;-75
2023/06/10 00:37:48;;;;;;;4.40;3.10;;;23.40;81.40;;;;;;10982990;32;20045;-75
2023/06/10 00:43:50;;;;;;;5.43;3.33;;;23.40;81.30;;;;;;10982757;32;20060;-75
2023/06/10 00:49:54;;;;;;;3.72;2.75;;;23.30;81.10;;;;;;10980396;32;20019;-75
2023/06/10 00:55:57;;;;;;;5.32;3.15;;;23.30;80.80;;;;;;10968886;32;20045;-75
2023/06/10 01:02:00;;;;;;;3.78;1.80;;;23.30;80.80;;;;;;10981945;32;20022;-75
2023/06/10 01:08:43;;;;;;;5.87;3.75;;;23.10;81.00;;;;;;10966116;32;20018;-75
2023/06/10 01:14:46;;;;;;;5.15;2.97;;;22.90;81.20;;;;;;10978770;32;20022;-75
2023/06/10 01:20:48;;;;;;;2.95;2.05;;;22.90;81.20;;;;;;10977383;32;20408;-75
2023/06/10 01:26:53;;;;;;;5.72;2.72;;;22.80;81.10;;;;;;10980936;32;20022;-75
2023/06/10 01:32:56;;;;;;;5.60;2.97;;;22.70;81.40;;;;;;10980692;32;20401;-75
2023/06/10 01:39:00;;;;;;;4.57;3.30;;;22.60;81.50;;;;;;10976793;32;20337;-75
2023/06/10 01:45:03;;;;;;;4.32;2.92;;;22.60;81.60;;;;;;10976397;32;20018;-75
2023/06/10 01:51:05;;;;;;;5.57;4.07;;;22.60;81.50;;;;;;10980324;32;20040;-75
2023/06/10 01:57:07;;;;;;;5.07;3.25;;;22.70;81.30;;;;;;10980156;32;20023;-75
2023/06/10 02:03:10;;;;;;;4.97;2.97;;;22.60;81.40;;;;;;10979852;32;20048;-75
2023/06/10 02:09:12;;;;;;;3.45;1.77;;;22.50;81.50;;;;;;10979785;32;20019;-76
2023/06/10 02:15:14;;;;;;;5.32;3.70;;;22.50;81.60;;;;;;10978616;32;20044;-75
2023/06/10 02:21:16;;;;;;;7.53;4.57;;;22.50;81.60;;;;;;10979147;32;20027;-75
2023/06/10 02:27:18;;;;;;;5.80;4.07;;;22.50;81.60;;;;;;10978065;32;20332;-75
2023/06/10 02:33:20;;;;;;;4.37;2.87;;;22.50;81.50;;;;;;10979392;32;20023;-75
2023/06/10 02:39:22;;;;;;;7.07;4.37;;;22.50;81.40;;;;;;10977764;32;20014;-75
2023/06/10 02:45:26;;;;;;;7.20;5.35;;;22.30;81.40;;;;;;10984826;32;20018;-76
2023/06/10 02:51:28;;;;;;;5.97;4.07;;;22.30;81.50;;;;;;10973272;32;20022;-76
2023/06/10 02:57:31;;;;;;;6.90;4.30;;;22.30;81.40;;;;;;10986508;32;20405;-76
2023/06/10 03:03:33;;;;;;;7.30;5.20;;;22.30;81.50;;;;;;10983456;32;20026;-76
2023/06/10 03:09:38;;;;;;;5.90;4.37;;;22.30;81.50;;;;;;10986087;32;20018;-76
2023/06/10 03:15:40;;;;;;;6.82;4.20;;;22.40;81.40;;;;;;10985814;32;20053;-76
2023/06/10 03:21:45;;;;;;;6.57;3.95;;;22.50;81.30;;;;;;10982597;32;20057;-76
2023/06/10 03:27:48;;;;;;;7.30;4.60;;;22.50;81.30;;;;;;10982836;32;20049;-76
2023/06/10 03:33:51;;;;;;;6.43;4.35;;;22.60;81.30;;;;;;10985127;32;20022;-76
2023/06/10 03:39:53;;;;;;;6.20;4.65;;;22.70;81.60;;;;;;10985025;32;20015;-76
2023/06/10 03:45:55;;;;;;;5.97;3.67;;;22.70;81.50;;;;;;10982490;32;20424;-76
2023/06/10 03:51:58;;;;;;;8.05;4.50;;;22.60;81.40;;;;;;10984005;32;20010;-77
2023/06/10 03:58:01;;;;;;;7.45;4.93;;;22.50;81.70;;;;;;10980061;32;20022;-76
2023/06/10 04:04:05;;;;;;;7.28;4.50;;;22.50;82.00;;;;;;10984023;32;20018;-76
2023/06/10 04:10:10;;;;;;;7.12;4.50;;;22.60;81.90;;;;;;10982592;32;20023;-76
2023/06/10 04:16:12;;;;;;;7.20;5.03;;;22.60;82.40;;;;;;10983700;32;20037;-76
2023/06/10 04:22:15;;;;;;;7.32;4.82;;;22.60;82.30;;;;;;10983391;32;20018;-76
2023/06/10 04:28:17;;;;;;;6.18;4.35;;;22.60;82.20;;;;;;10983156;32;20015;-77
2023/06/10 04:34:19;;;;;;;9.07;4.80;;;22.70;82.40;;;;;;10982954;32;20037;-76
2023/06/10 04:40:22;;;;;;;10.25;8.48;;;22.70;82.40;;;;;;10982778;32;20465;-76
2023/06/10 04:46:24;;;;;;;11.40;6.53;;;22.70;82.40;;;;;;10982440;32;20060;-76
2023/06/10 04:52:27;;;;;;;11.23;7.53;;;22.80;82.20;;;;;;10981750;32;20018;-76
2023/06/10 04:58:30;;;;;;;10.93;7.65;;;22.80;82.30;;;;;;10981370;32;20046;-76
2023/06/10 05:04:32;;;;;;;11.98;7.20;;;22.80;82.30;;;;;;10977070;32;20460;-76
2023/06/10 05:10:34;;;;;;;8.40;6.35;;;22.90;82.30;;;;;;10978131;32;20396;-76
2023/06/10 05:16:37;;;;;;;10.95;8.77;;;23.00;82.20;;;;;;10981442;32;20195;-76
2023/06/10 05:22:39;;;;;;;11.50;8.13;;;22.90;82.10;;;;;;10981112;32;20022;-76
2023/06/10 05:28:41;;;;;;;9.88;7.28;;;22.80;82.40;;;;;;10976947;32;20041;-76
2023/06/10 05:34:43;;;;;;;12.35;8.20;;;22.80;82.30;;;;;;10963331;32;20037;-76
2023/06/10 05:40:46;;;;;;;12.52;8.50;;;23.00;82.70;;;;;;10967258;32;20007;-76
2023/06/10 05:46:48;;;;;;;13.75;10.43;;;23.00;82.90;;;;;;10977576;32;20018;-76
2023/06/10 05:52:52;;;;;;;10.23;7.40;;;23.20;82.80;;;;;;10979525;32;20049;-76
2023/06/10 05:58:54;;;;;;;9.88;6.62;;;23.10;82.80;;;;;;10979089;32;20034;-77
2023/06/10 06:04:56;;;;;;;10.80;8.25;;;23.10;82.60;;;;;;10979708;32;20018;-76
2023/06/10 06:10:58;;;;;;;9.15;6.40;;;23.10;82.60;;;;;;10978498;32;20023;-76
2023/06/10 06:17:00;;;;;;;10.43;7.20;;;23.00;82.40;;;;;;10977905;32;20352;-76
2023/06/10 06:23:02;;;;;;;7.70;5.78;;;23.10;82.40;;;;;;10979398;32;20367;-76
2023/06/10 06:29:04;;;;;;;11.10;8.57;;;23.10;82.40;;;;;;10964247;32;20042;-76
2023/06/10 06:35:07;;;;;;;8.00;6.53;;;23.10;82.50;;;;;;10976872;32;20049;-77
2023/06/10 06:41:09;;;;;;;9.52;6.87;;;23.20;82.30;;;;;;10950259;32;20026;-76
2023/06/10 06:47:26;;;;;;;7.93;6.05;;;23.30;82.20;;;;;;10979005;32;20034;-76
2023/06/10 06:53:28;;;;;;;9.35;6.70;;;23.50;81.70;;;;;;10979002;32;20019;-76
2023/06/10 06:59:30;;;;;;;9.52;7.07;;;23.50;81.30;;;;;;10978685;32;20026;-76
2023/06/10 07:05:32;;;;;;;12.00;6.85;;;23.30;81.10;;;;;;10976049;32;20088;-76
2023/06/10 07:11:34;;;;;;;7.25;5.37;;;23.30;81.10;;;;;;10962374;32;20034;-75
2023/06/10 07:17:37;;;;;;;11.05;8.25;;;23.40;81.00;;;;;;10977472;32;20015;-75
2023/06/10 07:23:42;;;;;;;15.48;7.62;;;23.50;80.90;;;;;;10975603;32;20423;-76
2023/06/10 07:29:44;;;;;;;9.23;6.78;;;23.60;80.90;;;;;;10986359;27;20030;-76
2023/06/10 07:35:47;;;;;;;18.73;16.08;;;23.50;80.80;;;;;;10984674;32;20022;-76
2023/06/10 07:41:49;;;;;;;14.57;10.70;;;23.50;80.80;;;;;;10983199;32;20018;-76
2023/06/10 07:47:51;;;;;;;10.57;8.02;;;23.60;80.80;;;;;;10983443;32;20049;-75
2023/06/10 07:53:54;;;;;;;14.27;10.35;;;23.70;80.70;;;;;;10978520;32;20037;-75
2023/06/10 07:59:57;;;;;;;17.42;11.60;;;23.80;80.50;;;;;;10981937;32;20023;-75
2023/06/10 08:05:59;;;;;;;16.90;11.57;;;24.10;80.20;;;;;;10969272;32;20045;-75
2023/06/10 08:12:02;;;;;;;15.40;11.52;;;24.30;79.60;;;;;;10981387;32;20031;-75
2023/06/10 08:18:42;;;;;;;15.15;12.80;;;24.50;79.30;;;;;;10982195;32;20022;-75
2023/06/10 08:24:44;;;;;;;13.35;11.43;;;24.50;78.70;;;;;;10977865;32;20352;-75
2023/06/10 08:30:46;;;;;;;14.98;10.88;;;24.50;78.80;;;;;;10979519;32;20035;-75
2023/06/10 08:36:53;;;;;;;16.45;13.15;;;24.40;79.70;;;;;;10965883;32;20409;-75
2023/06/10 08:43:08;;;;;;;13.73;11.18;;;24.40;79.30;;;;;;10982846;32;20439;-75
2023/06/10 08:49:14;;;;;;;13.25;11.05;;;24.40;79.10;;;;;;10982596;32;20041;-75
2023/06/10 08:55:27;;;;;;;10.20;6.60;;;24.50;78.60;;;;;;10978270;32;20353;-74
2023/06/10 09:01:30;;;;;;;13.80;10.40;;;24.60;78.50;;;;;;10973921;32;20039;-74
2023/06/10 09:07:34;;;;;;;16.65;12.37;;;24.80;78.00;;;;;;10959320;32;20084;-74
2023/06/10 09:13:36;;;;;;;23.00;16.55;;;24.80;77.80;;;;;;10981474;32;20408;-75
2023/06/10 09:19:40;;;;;;;15.70;10.32;;;24.90;78.20;;;;;;10977995;32;20443;-74
2023/06/10 09:25:42;;;;;;;18.10;13.60;;;24.80;78.90;;;;;;10977136;32;20066;-74
2023/06/10 09:31:45;;;;;;;14.80;11.63;;;24.90;78.50;;;;;;10966923;32;20034;-74
2023/06/10 09:37:53;;;;;;;16.35;12.80;;;25.00;78.20;;;;;;10978166;32;20420;-74
2023/06/10 09:43:56;;;;;;;14.95;11.63;;;25.10;77.80;;;;;;10977906;32;20030;-74
2023/06/10 09:49:58;;;;;;;16.83;12.32;;;25.20;77.50;;;;;;10978425;32;20057;-74
2023/06/10 09:56:00;;;;;;;28.25;16.20;;;25.50;76.80;;;;;;10979308;32;20041;-74
2023/06/10 10:02:04;;;;;;;21.40;18.60;;;25.60;76.30;;;;;;10963043;32;20062;-74
2023/06/10 10:08:08;;;;;;;19.37;14.93;;;25.50;76.50;;;;;;10979837;32;20049;-74
2023/06/10 10:14:13;;;;;;;18.48;14.98;;;25.50;76.60;;;;;;10979851;32;20049;-73
2023/06/10 10:20:19;;;;;;;12.20;9.20;;;25.50;76.40;;;;;;10979493;32;20018;-74
2023/06/10 10:26:23;;;;;;;14.45;11.93;;;25.60;76.30;;;;;;10961605;32;20033;-74
2023/06/10 10:32:45;;;;;;;15.43;11.95;;;25.60;76.30;;;;;;10979566;32;20049;-74
2023/06/10 10:38:49;;;;;;;18.20;15.13;;;25.80;75.70;;;;;;10975170;32;20053;-73
2023/06/10 10:44:51;;;;;;;19.70;15.00;;;26.00;75.20;;;;;;10964262;32;20401;-74
2023/06/10 10:50:58;;;;;;;11.12;8.70;;;26.10;74.70;;;;;;10965670;32;20018;-73
2023/06/10 10:57:09;;;;;;;16.33;11.85;;;26.20;74.10;;;;;;10978909;32;20027;-74
2023/06/10 11:03:17;;;;;;;11.48;7.90;;;26.00;74.00;;;;;;10982511;32;20026;-74
2023/06/10 11:09:29;;;;;;;11.88;8.68;;;25.90;74.30;;;;;;10984220;32;20406;-74
2023/06/10 11:15:31;;;;;;;11.20;9.05;;;26.00;74.10;;;;;;10985887;32;20023;-74
2023/06/10 11:21:56;;;;;;;12.68;11.10;;;26.40;73.20;;;;;;10985768;32;20073;-75
2023/06/10 11:27:58;;;;;;;11.27;9.85;;;26.60;72.00;;;;;;10985357;32;20049;-75
2023/06/10 11:34:06;;;;;;;12.48;8.93;;;26.50;71.80;;;;;;10985310;32;20045;-74
2023/06/10 11:40:09;;;;;;;9.25;7.82;;;26.70;71.40;;;;;;10971671;32;20019;-74
2023/06/10 11:46:11;;;;;;;8.80;6.07;;;26.80;70.50;;;;;;10958350;32;20038;-74
2023/06/10 11:52:14;;;;;;;10.52;5.75;;;26.80;71.00;;;;;;10984841;32;20368;-74
2023/06/10 11:58:22;;;;;;;13.25;10.45;;;27.00;70.40;;;;;;10984566;32;20191;-74
2023/06/10 12:04:26;;;;;;;13.80;9.55;;;27.30;69.80;;;;;;10981633;32;20413;-74
2023/06/10 12:10:28;;;;;;;11.85;9.32;;;27.40;69.60;;;;;;10981211;32;20026;-74
2023/06/10 12:16:30;;;;;;;15.45;13.07;;;27.30;70.00;;;;;;10983536;32;20337;-75
2023/06/10 12:22:40;;;;;;;17.70;15.80;;;27.00;69.80;;;;;;10970163;32;20431;-75
2023/06/10 12:28:51;;;;;;;23.58;9.30;;;26.80;70.00;;;;;;10969726;32;20057;-75
2023/06/10 12:35:04;;;;;;;13.27;9.48;;;26.70;69.40;;;;;;10983186;32;20061;-75
2023/06/10 12:41:06;;;;;;;15.45;13.82;;;26.70;68.90;;;;;;10983028;32;20015;-74
2023/06/10 12:47:09;;;;;;;25.90;18.70;;;26.60;69.20;;;;;;10982715;32;20041;-74
2023/06/10 12:53:53;;;;;;;11.93;9.90;;;26.50;69.00;;;;;;10982767;32;20471;-74
2023/06/10 13:00:00;;;;;;;10.27;8.50;;;26.40;68.20;;;;;;10968932;32;20044;-73
2023/06/10 13:06:05;;;;;;;9.63;5.82;;;26.30;68.00;;;;;;10981837;32;20022;-75
2023/06/10 13:12:12;;;;;;;11.93;8.70;;;26.40;68.10;;;;;;10966563;32;20023;-74
2023/06/10 13:18:14;;;;;;;13.25;7.62;;;26.40;67.90;;;;;;10981493;32;20027;-74
2023/06/10 13:24:16;;;;;;;8.77;6.18;;;26.50;67.60;;;;;;10980702;32;20396;-74
2023/06/10 13:30:18;;;;;;;14.87;10.13;;;26.80;67.30;;;;;;10967594;32;20049;-75
2023/06/10 13:36:20;;;;;;;8.10;5.43;;;27.00;66.40;;;;;;10967458;32;20049;-78
2023/06/10 13:42:26;;;;;;;6.18;4.37;;;27.10;65.90;;;;;;10967431;32;20431;-74
2023/06/10 13:48:53;;;;;;;13.15;4.00;;;27.00;65.90;;;;;;10966628;32;20404;-73
2023/06/10 13:54:55;;;;;;;7.10;4.32;;;27.10;65.90;;;;;;10977610;32;20328;-72
2023/06/10 14:00:58;;;;;;;7.60;2.58;;;27.20;65.20;;;;;;10980351;32;20335;-73
2023/06/10 14:07:00;;;;;;;3.60;2.22;;;27.20;65.00;;;;;;10979929;32;20023;-74
2023/06/10 14:13:02;;;;;;;4.90;2.65;;;27.40;64.80;;;;;;10966184;32;20062;-74
2023/06/10 14:19:05;;;;;;;4.15;1.70;;;27.40;64.40;;;;;;10979652;32;20022;-74
2023/06/10 14:25:17;;;;;;;3.67;2.28;;;27.50;64.50;;;;;;10978793;32;20057;-72
2023/06/10 14:31:19;;;;;;;4.05;1.80;;;27.60;64.40;;;;;;10953152;32;20439;-73
2023/06/10 14:37:21;;;;;;;5.25;2.03;;;27.60;64.60;;;;;;10970593;32;20038;-73
2023/06/10 14:43:23;;;;;;;3.08;2.25;;;27.60;64.40;;;;;;10987181;32;20092;-74
2023/06/10 14:49:26;;;;;;;3.65;2.15;;;27.80;64.30;;;;;;10969848;32;20031;-73
2023/06/10 14:55:28;;;;;;;3.97;2.08;;;27.90;64.10;;;;;;10983530;32;20022;-73
2023/06/10 15:01:36;;;;;;;5.95;3.08;;;27.80;64.10;;;;;;10982893;32;20018;-74
2023/06/10 15:07:42;;;;;;;4.45;2.55;;;27.90;63.60;;;;;;10986060;32;20030;-73
2023/06/10 15:13:45;;;;;;;3.85;2.28;;;27.90;63.50;;;;;;10968100;32;20061;-73
2023/06/10 15:19:48;;;;;;;3.70;1.80;;;27.90;63.40;;;;;;10983797;32;20063;-74
2023/06/10 15:25:50;;;;;;;2.62;1.50;;;27.90;63.20;;;;;;10982186;27;20045;-73
2023/06/10 15:31:52;;;;;;;2.67;1.37;;;27.90;63.30;;;;;;10934280;32;20011;-73
2023/06/10 15:37:57;;;;;;;3.55;1.83;;;27.90;63.40;;;;;;10947477;32;20023;-73
2023/06/10 15:44:24;;;;;;;2.05;1.40;;;27.90;63.00;;;;;;10947194;32;20022;-74
2023/06/10 15:50:26;;;;;;;4.90;2.15;;;27.80;63.10;;;;;;10946246;32;20412;-73
2023/06/10 15:56:39;;;;;;;4.32;2.10;;;27.80;63.10;;;;;;10933225;32;20329;-73
2023/06/10 16:02:41;;;;;;;3.92;1.75;;;27.90;63.00;;;;;;10946656;32;20026;-74
2023/06/10 16:09:06;;;;;;;3.00;1.70;;;27.90;62.90;;;;;;10946948;32;20028;-74
2023/06/10 16:15:37;;;;;;;3.47;1.92;;;27.90;63.00;;;;;;10943478;32;20015;-73
2023/06/10 16:21:40;;;;;;;2.78;1.10;;;27.90;63.20;;;;;;10942056;32;20019;-73
2023/06/10 16:27:42;;;;;;;7.18;1.48;;;27.90;63.10;;;;;;10932276;32;20311;-73
2023/06/10 16:33:44;;;;;;;2.22;1.27;;;27.90;63.40;;;;;;10932266;32;20376;-74
2023/06/10 16:39:46;;;;;;;3.15;1.60;;;27.90;63.50;;;;;;10941363;32;20053;-74
2023/06/10 16:45:48;;;;;;;2.87;1.58;;;27.90;63.60;;;;;;10942760;32;20010;-73
2023/06/10 16:51:50;;;;;;;4.07;1.83;;;27.80;63.80;;;;;;10944445;32;20011;-74
2023/06/10 16:57:52;;;;;;;3.92;2.08;;;27.60;64.40;;;;;;10940658;32;20333;-74
2023/06/10 17:03:54;;;;;;;3.67;1.65;;;27.50;64.60;;;;;;10941036;32;20081;-74
2023/06/10 17:09:57;;;;;;;7.78;1.80;;;27.50;64.70;;;;;;10943618;32;20022;-74
2023/06/10 17:15:59;;;;;;;3.92;2.15;;;27.60;65.10;;;;;;10928096;32;20061;-73
2023/06/10 17:22:01;;;;;;;3.42;2.10;;;27.40;67.80;;;;;;10924758;32;20039;-73
2023/06/10 17:28:03;;;;;;;3.37;1.67;;;27.00;70.70;;;;;;10943692;32;20333;-74
2023/06/10 17:34:05;;;;;;;2.58;1.73;;;26.80;71.60;;;;;;10939786;32;20046;-74
2023/06/10 17:40:08;;;;;;;2.60;1.75;;;26.50;72.40;;;;;;10943357;32;20081;-73
2023/06/10 17:46:11;;;;;;;5.07;2.35;;;26.30;72.70;;;;;;10929162;32;20405;-74
2023/06/10 17:52:13;;;;;;;4.70;2.75;;;26.10;73.60;;;;;;10942870;32;20007;-73
2023/06/10 17:58:15;;;;;;;4.30;2.83;;;25.90;75.00;;;;;;10942538;32;20019;-74
2023/06/10 18:04:17;;;;;;;5.12;2.65;;;25.80;75.90;;;;;;10940476;32;20049;-73
2023/06/10 18:10:20;;;;;;;6.18;4.20;;;25.80;76.30;;;;;;10937167;32;20034;-74
2023/06/10 18:16:22;;;;;;;3.83;2.65;;;25.80;76.60;;;;;;10938521;32;20062;-74
2023/06/10 18:22:24;;;;;;;5.65;3.78;;;25.70;77.10;;;;;;10926558;32;20049;-74
2023/06/10 18:28:29;;;;;;;7.35;5.78;;;25.50;76.90;;;;;;10941973;32;20061;-73
2023/06/10 18:34:32;;;;;;;6.85;4.25;;;25.40;77.00;;;;;;10924545;32;20031;-74
2023/06/10 18:40:34;;;;;;;12.50;8.93;;;25.20;77.20;;;;;;10941639;32;20471;-75
2023/06/10 18:46:39;;;;;;;8.32;6.82;;;25.00;78.90;;;;;;10937805;32;20018;-74
2023/06/10 18:52:41;;;;;;;6.87;4.95;;;24.60;79.70;;;;;;10911260;32;20018;-77
2023/06/10 18:58:46;;;;;;;6.05;4.30;;;24.40;80.20;;;;;;10941377;32;20019;-77
2023/06/10 19:04:48;;;;;;;7.70;4.90;;;24.30;80.50;;;;;;10927630;32;20041;-75
2023/06/10 19:10:50;;;;;;;6.40;4.85;;;24.30;80.50;;;;;;10940902;32;20038;-76
2023/06/10 19:16:53;;;;;;;8.95;5.28;;;24.40;80.80;;;;;;10940046;32;20023;-75
2023/06/10 19:22:55;;;;;;;10.02;4.97;;;24.50;80.50;;;;;;10941964;32;20050;-74
2023/06/10 19:28:57;;;;;;;9.68;4.43;;;24.60;80.10;;;;;;10933378;32;20424;-74
2023/06/10 19:34:59;;;;;;;7.05;4.28;;;24.70;79.80;;;;;;10933993;32;20057;-74
2023/06/10 19:41:03;;;;;;;6.57;4.00;;;24.70;80.30;;;;;;10947570;32;20344;-73
2023/06/10 19:47:06;;;;;;;5.40;3.75;;;24.60;80.70;;;;;;10943150;32;20332;-73
2023/06/10 19:53:09;;;;;;;6.62;4.65;;;24.60;80.80;;;;;;10929774;32;20027;-74
2023/06/10 19:59:13;;;;;;;7.35;4.45;;;24.70;80.60;;;;;;10944884;32;20439;-73
2023/06/10 20:05:15;;;;;;;7.07;5.30;;;24.70;80.70;;;;;;10933107;32;20333;-74
2023/06/10 20:11:18;;;;;;;6.57;4.80;;;24.70;80.40;;;;;;10946270;32;20019;-74
2023/06/10 20:17:20;;;;;;;5.03;3.87;;;24.70;80.30;;;;;;10943343;32;20019;-74
2023/06/10 20:23:22;;;;;;;7.75;5.37;;;24.50;80.20;;;;;;10942911;32;20318;-74
2023/06/10 20:29:27;;;;;;;8.65;4.90;;;24.30;80.00;;;;;;10943419;32;20065;-74
2023/06/10 20:35:29;;;;;;;8.48;5.32;;;24.20;80.30;;;;;;10943582;32;20015;-74
2023/06/10 20:41:34;;;;;;;8.15;5.10;;;24.20;80.30;;;;;;10945426;32;20034;-73
2023/06/10 20:47:36;;;;;;;7.80;5.20;;;24.20;80.30;;;;;;10942774;32;20313;-74
2023/06/10 20:53:38;;;;;;;5.75;4.15;;;24.30;80.20;;;;;;10945006;32;20014;-74
2023/06/10 20:59:43;;;;;;;7.57;5.43;;;24.30;79.90;;;;;;10941967;32;20031;-74
2023/06/10 21:05:45;;;;;;;7.45;5.18;;;24.30;79.80;;;;;;10931037;32;20089;-74
2023/06/10 21:11:48;;;;;;;7.28;5.50;;;24.20;79.90;;;;;;10940277;32;20400;-74
2023/06/10 21:17:50;;;;;;;6.50;4.55;;;24.10;79.90;;;;;;10927205;32;20022;-74
2023/06/10 21:23:54;;;;;;;7.50;5.43;;;24.10;80.20;;;;;;10939618;32;20023;-74
2023/06/10 21:29:56;;;;;;;8.85;6.00;;;24.10;80.30;;;;;;10943598;32;20042;-74
2023/06/10 21:35:58;;;;;;;7.70;5.28;;;24.10;80.00;;;;;;10939403;32;20065;-74
2023/06/10 21:42:00;;;;;;;5.82;3.85;;;24.00;79.80;;;;;;10929335;32;20034;-74
2023/06/10 21:48:02;;;;;;;7.93;5.97;;;24.00;79.70;;;;;;10928313;32;20406;-74
2023/06/10 21:54:04;;;;;;;7.87;5.72;;;24.00;79.60;;;;;;10916126;32;20494;-74
2023/06/10 22:00:13;;;;;;;8.98;6.85;;;23.90;79.60;;;;;;10942683;32;20332;-74
2023/06/10 22:06:15;;;;;;;10.07;6.10;;;23.80;79.70;;;;;;10941226;32;20077;-75
2023/06/10 22:12:18;;;;;;;10.70;7.12;;;23.80;79.80;;;;;;10942286;32;20020;-74
2023/06/10 22:18:20;;;;;;;9.88;7.12;;;23.80;79.70;;;;;;10942106;32;20019;-75
2023/06/10 22:24:22;;;;;;;8.70;6.35;;;23.70;79.70;;;;;;10941891;32;20023;-75
2023/06/10 22:30:24;;;;;;;8.63;5.78;;;23.70;79.80;;;;;;10925954;32;20065;-74
2023/06/10 22:36:48;;;;;;;8.63;5.95;;;23.70;79.80;;;;;;10939675;32;20027;-75
2023/06/10 22:42:50;;;;;;;7.97;5.75;;;23.70;79.60;;;;;;10941643;32;20350;-75
2023/06/10 22:48:52;;;;;;;8.73;6.53;;;23.70;79.90;;;;;;10927283;32;20034;-75
2023/06/10 22:54:55;;;;;;;7.85;6.53;;;23.70;79.80;;;;;;10941369;32;20425;-75
2023/06/10 23:01:23;;;;;;;10.98;7.15;;;23.60;79.80;;;;;;10945304;32;20340;-76
2023/06/10 23:07:25;;;;;;;10.35;7.10;;;23.60;79.70;;;;;;10946109;32;20059;-76
2023/06/10 23:13:27;;;;;;;6.68;5.30;;;23.50;79.90;;;;;;10946106;32;20023;-76
2023/06/10 23:19:29;;;;;;;9.57;5.53;;;23.30;80.20;;;;;;10945787;32;20015;-76
2023/06/10 23:25:32;;;;;;;5.10;3.75;;;23.30;80.10;;;;;;10523342;27;13860477;-75
2023/06/10 23:31:34;;;;;;;16.55;7.03;;;23.30;80.00;;;;;;10982198;32;20018;-75
2023/06/10 23:37:37;;;;;;;7.28;5.20;;;23.20;80.30;;;;;;10985319;32;20037;-75
2023/06/10 23:43:39;;;;;;;5.93;4.32;;;23.30;80.20;;;;;;10985034;32;20023;-76
2023/06/10 23:49:41;;;;;;;7.37;4.97;;;23.30;80.10;;;;;;10966732;32;20026;-76
2023/06/10 23:55:43;;;;;;;8.23;5.32;;;23.30;80.10;;;;;;10983805;32;20018;-75
